West Salem, Ohio
Current Conditions -  °F | °C
As of 10:56 PM on Sunday 21 Dec 2014 (Local Time) from KBJJ Reporting Station
Haze Haze  
Wind Chill: -9°   Ceiling: Unl
Heat Index: -5°   Visibility: 6mi
Dew Point: -7°   Wind: 6mph
Humidity: 85%   Direction: 80°E
Pressure: 30.19"   Gusts: NA
Location:  40.97°N, 82.11°W
Report Text: KBJJ 220356Z AUTO 08005KT 6SM BR CLR M05/M07 A3019 RMK AO2 SLP239 T10501072 TSNO
Loading
Personal Weather Stations






























Interactive Weather Map New forecast layout! Learn more

10-Day Weather Forecast

Advertisements
Track Severe Weather on mobile